Map

Track Data

SID SEASON NUMBER BASIN SUBBASIN NAME ISO_TIME NATURE LAT LON WMO_WIND WMO_PRES WMO_AGENCY TRACK_TYPE DIST2LAND LANDFALL IFLAG USA_AGENCY USA_ATCF_ID USA_LAT USA_LON USA_RECORD USA_STATUS USA_WIND USA_PRES USA_SSHS USA_R34_NE USA_R34_SE USA_R34_SW USA_R34_NW USA_R50_NE USA_R50_SE USA_R50_SW USA_R50_NW USA_R64_NE USA_R64_SE USA_R64_SW USA_R64_NW USA_POCI USA_ROCI USA_RMW USA_EYE TOKYO_LAT TOKYO_LON TOKYO_GRADE TOKYO_WIND TOKYO_PRES TOKYO_R50_DIR TOKYO_R50_LONG TOKYO_R50_SHORT TOKYO_R30_DIR TOKYO_R30_LONG TOKYO_R30_SHORT TOKYO_LAND CMA_LAT CMA_LON CMA_CAT CMA_WIND CMA_PRES HKO_LAT HKO_LON HKO_CAT HKO_WIND HKO_PRES NEWDELHI_LAT NEWDELHI_LON NEWDELHI_GRADE NEWDELHI_WIND NEWDELHI_PRES NEWDELHI_CI NEWDELHI_DP NEWDELHI_POCI REUNION_LAT REUNION_LON REUNION_TYPE REUNION_WIND REUNION_PRES REUNION_TNUM REUNION_CI REUNION_RMW REUNION_R34_NE REUNION_R34_SE REUNION_R34_SW REUNION_R34_NW REUNION_R50_NE REUNION_R50_SE REUNION_R50_SW REUNION_R50_NW REUNION_R64_NE REUNION_R64_SE REUNION_R64_SW REUNION_R64_NW BOM_LAT BOM_LON BOM_TYPE BOM_WIND BOM_PRES BOM_TNUM BOM_CI BOM_RMW BOM_R34_NE BOM_R34_SE BOM_R34_SW BOM_R34_NW BOM_R50_NE BOM_R50_SE BOM_R50_SW BOM_R50_NW BOM_R64_NE BOM_R64_SE BOM_R64_SW BOM_R64_NW BOM_ROCI BOM_POCI BOM_EYE BOM_POS_METHOD BOM_PRES_METHOD NADI_LAT NADI_LON NADI_CAT NADI_WIND NADI_PRES WELLINGTON_LAT WELLINGTON_LON WELLINGTON_WIND WELLINGTON_PRES DS824_LAT DS824_LON DS824_STAGE DS824_WIND DS824_PRES TD9636_LAT TD9636_LON TD9636_STAGE TD9636_WIND TD9636_PRES TD9635_LAT TD9635_LON TD9635_WIND TD9635_PRES TD9635_ROCI NEUMANN_LAT NEUMANN_LON NEUMANN_CLASS NEUMANN_WIND NEUMANN_PRES MLC_LAT MLC_LON MLC_CLASS MLC_WIND MLC_PRES USA_GUST BOM_GUST BOM_GUST_PER REUNION_GUST REUNION_GUST_PER USA_SEAHGT USA_SEARAD_NE USA_SEARAD_SE USA_SEARAD_SW USA_SEARAD_NW STORM_SPEED STORM_DIR
1896178N21090 1896 14 NI BB NOT_NAMED 1896-06-26 00:00:00 TS 20.5000 89.9000 main 143 143 _________O____ -1 20.5000 89.9000 TC 45 1 309
1896178N21090 1896 14 NI BB NOT_NAMED 1896-06-26 03:00:00 TS 20.5350 89.8583 main 143 129 _________PO___ -1 20.5525 89.8375 TC 49 20.5000 89.9000 3 1 320
1896178N21090 1896 14 NI BB NOT_NAMED 1896-06-26 06:00:00 TS 20.5800 89.8263 main 129 129 _________OP___ -1 20.6000 89.8000 TC 54 20.5500 89.8658 3 1 337
1896178N21090 1896 14 NI BB NOT_NAMED 1896-06-26 09:00:00 TS 20.6243 89.8151 main 129 119 _________PP___ -1 20.6425 89.8000 TC 59 20.6000 89.8352 3 1 349
1896178N21090 1896 14 NI BB NOT_NAMED 1896-06-26 12:00:00 TS 20.6750 89.8060 main 119 119 _________OP___ -1 20.7000 89.8000 TC 64 20.6500 89.8120 3 1 338
1896178N21090 1896 14 NI BB NOT_NAMED 1896-06-26 15:00:00 TS 20.7463 89.7750 main 119 108 _________PO___ -1 20.7925 89.7500 TC 64 20.7000 89.8000 4 2 338
1896178N21090 1896 14 NI BB NOT_NAMED 1896-06-26 18:00:00 TS 20.8265 89.7495 main 105 98 _________OP___ -1 20.9000 89.7000 TC 64 20.7531 89.7991 4 2 351
1896178N21090 1896 14 NI BB NOT_NAMED 1896-06-26 21:00:00 TS 20.8974 89.7547 main 98 84 _________PP___ -1 20.9700 89.7149 TC 64 20.8249 89.7945 4 2 0
1896178N21090 1896 14 NI BB NOT_NAMED 1896-06-27 00:00:00 TS 21.0171 89.7338 main 84 59 _________OP___ -1 21.1000 89.7000 TC 64 20.9343 89.7677 4 4 343
1896178N21090 1896 14 NI BB NOT_NAMED 1896-06-27 03:00:00 TS 21.2350 89.6400 main 59 24 _________PO___ -1 21.3700 89.5800 TC 59 21.1000 89.7000 4 6 336
1896178N21090 1896 14 NI BB NOT_NAMED 1896-06-27 06:00:00 TS 21.5294 89.4883 main 24 0 _________OP___ -1 21.7000 89.4000 TC 54 21.3588 89.5766 4 7 333
1896178N21090 1896 14 NI BB NOT_NAMED 1896-06-27 09:00:00 TS 21.8388 89.3090 main 0 0 _________PP___ -1 22.0075 89.2075 TC 49 21.6700 89.4105 4 7 330
1896178N21090 1896 14 NI BB NOT_NAMED 1896-06-27 12:00:00 TS 22.1481 89.1070 main 0 0 _________OP___ -1 22.3000 89.0000 TC 45 21.9963 89.2141 4 7 328
1896178N21090 1896 14 NI BB NOT_NAMED 1896-06-27 15:00:00 TS 22.4362 88.9037 main 0 0 _________PO___ -1 22.5724 88.8074 TC 41 22.3000 89.0000 3 6 325
1896178N21090 1896 14 NI BB NOT_NAMED 1896-06-27 18:00:00 TS 22.6703 88.7087 main 0 0 _________OP___ -1 22.8000 88.6000 TC 37 22.5406 88.8175 3 6 318
1896178N21090 1896 14 NI BB NOT_NAMED 1896-06-27 21:00:00 TS 22.8584 88.4984 main 0 0 _________PP___ -1 22.9649 88.3798 TC 33 22.7519 88.6170 3 6 309
1896178N21090 1896 14 NI BB NOT_NAMED 1896-06-28 00:00:00 TS 23.0187 88.2415 main 0 0 _________OP___ -1 23.1000 88.1000 TC 30 22.9373 88.3831 3 6 301
1896178N21090 1896 14 NI BB NOT_NAMED 1896-06-28 03:00:00 TS 23.1788 87.9113 main 0 0 _________PO___ -1 23.2575 87.7225 TC 30 23.1000 88.1000 1 7 296
1896178N21090 1896 14 NI BB NOT_NAMED 1896-06-28 06:00:00 TS 23.3271 87.5413 main 0 0 _________OP___ -1 23.4000 87.3000 TC 30 23.2542 87.7826 1 7 292
1896178N21090 1896 14 NI BB NOT_NAMED 1896-06-28 09:00:00 TS 23.4469 87.1710 main 0 0 _________PP___ -1 23.5071 86.9298 TC 30 23.3867 87.4122 1 8 287
1896178N21090 1896 14 NI BB NOT_NAMED 1896-06-28 12:00:00 TS 23.5504 86.7428 main 0 0 _________OP___ -1 23.6000 86.5000 TC 30 23.5008 86.9857 1 9 283
1896178N21090 1896 14 NI BB NOT_NAMED 1896-06-28 15:00:00 TS 23.6538 86.2150 main 0 0 _________PO___ -1 23.7076 85.9301 TC 30 23.6000 86.5000 1 10 280
1896178N21090 1896 14 NI BB NOT_NAMED 1896-06-28 18:00:00 TS 23.7386 85.6324 main 0 0 _________OP___ -1 23.8000 85.3000 TC 30 23.6772 85.9648 1 11 278
1896178N21090 1896 14 NI BB NOT_NAMED 1896-06-28 21:00:00 TS 23.7961 85.0405 main 0 0 _________PP___ -1 23.8497 84.7072 TC 30 23.7424 85.3738 1 11 276
1896178N21090 1896 14 NI BB NOT_NAMED 1896-06-29 00:00:00 TS 23.8557 84.4229 main 0 0 _________OP___ -1 23.9000 84.1000 TC 30 23.8114 84.7459 1 12 277
1896178N21090 1896 14 NI BB NOT_NAMED 1896-06-29 03:00:00 TS 23.9387 83.7786 main 0 0 _________PO___ -1 23.9773 83.4573 TC 30 23.9000 84.1000 1 12 280
1896178N21090 1896 14 NI BB NOT_NAMED 1896-06-29 06:00:00 TS 24.0562 83.1199 main 0 0 _________OP___ -1 24.1000 82.8000 TC 30 24.0123 83.4399 1 12 283
1896178N21090 1896 14 NI BB NOT_NAMED 1896-06-29 09:00:00 TS 24.2127 82.4486 main 0 0 _________PP___ -1 24.2775 82.1275 TC 30 24.1478 82.7697 1 12 286
1896178N21090 1896 14 NI BB NOT_NAMED 1896-06-29 12:00:00 TS 24.4047 81.8073 main 0 0 _________OP___ -1 24.5000 81.5000 TC 30 24.3093 82.1147 1 12 290
1896178N21090 1896 14 NI BB NOT_NAMED 1896-06-29 15:00:00 TS 24.6210 81.2386 main 0 0 _________PO___ -1 24.7421 80.9773 TC 30 24.5000 81.5000 1 11 295
1896178N21090 1896 14 NI BB NOT_NAMED 1896-06-29 18:00:00 TS 24.8664 80.7125 main 0 0 _________OP___ -1 25.0000 80.5000 TC 30 24.7328 80.9249 1 11 298
1896178N21090 1896 14 NI BB NOT_NAMED 1896-06-29 21:00:00 TS 25.1285 80.1830 main 0 0 _________PP___ -1 25.2651 79.9701 TC 30 24.9918 80.3958 1 10 299
1896178N21090 1896 14 NI BB NOT_NAMED 1896-06-30 00:00:00 TS 25.3775 79.7093 main 0 0 _________OP___ -1 25.5000 79.5000 TC 30 25.2550 79.9187 1 9 300
1896178N21090 1896 14 NI BB NOT_NAMED 1896-06-30 03:00:00 TS 25.5786 79.3348 main 0 0 _________PO___ -1 25.6572 79.1696 TC 30 25.5000 79.5000 1 7 301
1896178N21090 1896 14 NI BB NOT_NAMED 1896-06-30 06:00:00 TS 25.7457 79.0227 main 0 0 _________OP___ -1 25.8000 78.9000 TC 30 25.6915 79.1454 1 7 303
1896178N21090 1896 14 NI BB NOT_NAMED 1896-06-30 09:00:00 TS 25.9281 78.7267 main 0 0 _________PP___ -1 25.9924 78.6074 TC 30 25.8637 78.8460 1 6 305
1896178N21090 1896 14 NI BB NOT_NAMED 1896-06-30 12:00:00 TS 26.1146 78.4368 main 0 0 _________OP___ -1 26.2000 78.3000 TC 30 26.0292 78.5737 1 7 305
1896178N21090 1896 14 NI BB NOT_NAMED 1896-06-30 15:00:00 TS 26.3000 78.1250 main 0 0 _________PO___ -1 26.4000 77.9500 TC 30 26.2000 78.3000 1 7 304
1896178N21090 1896 14 NI AS NOT_NAMED 1896-06-30 18:00:00 TS 26.4774 77.8299 main 0 0 _________OP___ -1 26.6000 77.6000 TC 30 26.3855 78.0023 1 7 304
1896178N21090 1896 14 NI AS NOT_NAMED 1896-06-30 21:00:00 TS 26.6702 77.5240 main 0 0 _________PP___ -1 26.8001 77.2877 TC 30 26.5837 77.6816 1 7 305
1896178N21090 1896 14 NI AS NOT_NAMED 1896-07-01 00:00:00 TS 26.8600 77.2301 main 0 0 _________OP___ -1 27.0000 77.0000 TC 30 26.7900 77.3451 1 6 305
1896178N21090 1896 14 NI AS NOT_NAMED 1896-07-01 03:00:00 NR 27.0000 77.0000 main 0 __________O___ -1 TC 27.0000 77.0000 1 5 304

About IBTrACS Database

This database is a web-friendly format of International Best Track Archive for Climate Stewardship (IBTrACS), a global best track data archive curated by NOAA dating back to 1842.

Updated: 2021-10-21